Central Aleutians 230nm Sw Dutch Harbor (46072) Wave Buoy

1:50am - Wed 25th Nov 2015 All times are UTC.

  • Sig Wave height 10.2ft
  • Peak Period 12s
  • Average Period 8s
  • Wind
    16mph, 20mph gusts
  • Sea Temp 43°f
  • 空気 Temp 39°f
  • Sea Pressure 1012.8mb

More Historic Weather Station data

Upgrade to MSW Pro to gain access to the past 30 days of data for over 8000 Wavebouys and Weather Stations around the globe.

Join Pro

Comparision Forecast

View Surf forecast
Wed 11/25 1:50am 10ft 12s 8s 16 20 mph 1012.8mb 43f 39f
12:50am 11ft 11s 8s 16 20 mph 1012mb 43f 39f
Tue 11/24 11:50pm 10.5ft 12s 8s 16 20 mph 1011.6mb 43f 39f
10:50pm 10.5ft 12s 8s 16 20 mph 1011.3mb 43f 39f
9:50pm 10ft 12s 7s 16 20 mph 1011.1mb 43f 39f
8:50pm 11ft 8s 7s 13 18 mph 1010.6mb 43f 39f
7:50pm 12ft 12s 7s 13 18 mph 1010.1mb 43f 38f
6:50pm 13.5ft 12s 8s 16 20 mph 1009.3mb 43f 39f
5:50pm 11.5ft 10s 7s 18 22 mph 1008.7mb 43f 39f
4:50pm 12.5ft 13s 8s 13 18 mph 1008.2mb 43f 38f
3:50pm 12ft 9s 8s 13 18 mph 1008mb 43f 39f
2:50pm 12ft 14s 8s 18 20 mph 1008mb 43f 40f
1:50pm 13.5ft 10s 8s 16 20 mph 1008.1mb 43f 40f
12:50pm 13ft 12s 8s 16 20 mph 1007.9mb 43f 40f
11:50am 14.5ft 13s 9s 20 27 mph 1007.8mb 43f 39f
10:50am 15.5ft 12s 9s 13 18 mph 1008mb 43f 40f
9:50am 15.5ft 10s 8s 18 22 mph 1008.3mb 43f 38f
8:50am 18ft 15s 9s 20 25 mph 1007.9mb 43f 40f
7:50am 19ft 15s 9s 22 29 mph 1007.7mb 43f 39f
6:50am 19.5ft 15s 9s 22 29 mph 1007.5mb 43f 40f
5:50am 22.5ft 15s 9s 25 36 mph 1007.3mb 43f 38f
4:50am 23ft 15s 9s 22 29 mph 1007.1mb 44f 40f
3:50am 25ft 16s 10s 25 31 mph 1006.7mb 44f 41f
2:50am 28ft 16s 10s 29 34 mph 1006.2mb 44f 42f
1:50am 28ft 15s 10s 34 43 mph 1005.7mb 44f 42f
12:50am 28ft 16s 10s 31 38 mph 1005.5mb 43f 42f
Mon 11/23 11:50pm 32ft 17s 11s 36 47 mph 1005mb 43f 41f
10:50pm 33.5ft 17s 11s 36 47 mph 1004.9mb 43f 41f
9:50pm 31.5ft 17s 11s 40 49 mph 1004.4mb 43f 42f
8:50pm 34ft 17s 11s 38 47 mph 1004.1mb 43f 42f
7:50pm 32ft 15s 11s 38 54 mph 1003.7mb 43f 42f
6:50pm 30ft 17s 10s 38 49 mph 1003.2mb 43f 41f
5:50pm 33ft 17s 11s 38 49 mph 1002.8mb 43f 41f
4:50pm 33.5ft 16s 11s 38 49 mph 1002.4mb 42f 41f
3:50pm 31ft 16s 10s 36 45 mph 1002.3mb 42f 42f
2:50pm 33ft 17s 11s 38 49 mph 1002.3mb 42f 42f
1:50pm 36ft 17s 12s 38 49 mph 1002.3mb 42f 43f
12:50pm 28ft 16s 10s 36 43 mph 1002.2mb 43f 43f
11:50am 24.5ft 13s 9s 36 45 mph 1002.2mb 43f 43f
10:50am 21ft 11s 8s 34 43 mph 1002.7mb 42f 43f
9:50am 19.5ft 12s 8s 31 40 mph 1003.1mb 42f 42f
8:50am 19.5ft 12s 8s 31 40 mph 1003.3mb 42f 44f
7:50am 18.5ft 12s 8s 29 36 mph 1003.2mb 43f 44f
6:50am 18.5ft 11s 8s 29 38 mph 1003.2mb 43f 44f
5:50am 20.5ft 12s 9s 31 40 mph 1003.5mb 43f 45f
4:50am 19ft 12s 8s 27 34 mph 1003.5mb 42f 43f
3:50am 20ft 12s 8s 25 34 mph 1003.8mb 43f 45f
2:50am 21.5ft 12s 9s 22 29 mph 1003.7mb 43f 45f
1:50am 21.5ft 11s 9s 25 31 mph 1004.3mb 43f 44f
12:50am 20.5ft 11s 8s 38 47 mph 1004.1mb 43f 45f
Sun 11/22 11:50pm 20.5ft 11s 8s 38 49 mph 1005.1mb 43f 45f
10:50pm 21.5ft 11s 8s 40 51 mph 1006.5mb 43f 45f
9:50pm 17ft 10s 7s 43 56 mph 1008.1mb 42f 45f
8:50pm 15.5ft 9s 7s 43 51 mph 1009.5mb 42f 45f
7:50pm 16.5ft 9s 7s 38 47 mph 1012.7mb 42f 45f
6:50pm 14ft 8s 7s 36 45 mph 1014.8mb 42f 44f
5:50pm 14ft 8s 7s 38 45 mph 1017.1mb 42f 44f
4:50pm 12.5ft 8s 6s 34 45 mph 1019.1mb 42f 44f
3:50pm 12ft 11s 6s 34 40 mph 1020.9mb 42f 44f
2:50pm 11ft 6s 6s 29 38 mph 1022.7mb 42f 43f
1:50pm 11.5ft 8s 6s 29 36 mph 1024.7mb 43f 43f
12:50pm 11ft 11s 7s 29 34 mph 1025.9mb 43f 43f
11:50am 10.5ft 11s 7s 25 29 mph 1026.9mb 43f 43f
10:50am 10ft 11s 7s 20 27 mph 1028mb 43f 42f
9:50am 10ft 8s 7s 20 25 mph 1029.4mb 43f 42f
8:50am 10.5ft 9s 7s 16 20 mph 1030mb 43f 42f
7:50am 10ft 11s 7s 16 20 mph 1030.2mb 44f 42f
6:50am 10ft 11s 7s 16 18 mph 1030.6mb 44f 42f
5:50am 9ft 10s 7s 13 18 mph 1030.4mb 43f 42f
4:50am 10ft 11s 7s 13 16 mph 1030.5mb 44f 40f
3:50am 11ft 8s 7s 16 20 mph 1030.3mb 44f 40f
2:50am 11ft 9s 7s 20 22 mph 1029.6mb 44f 41f
1:50am 12ft 12s 7s 20 25 mph 1028.9mb 44f 41f
12:50am 13ft 12s 7s 22 29 mph 1028.3mb 44f 41f
Sat 11/21 11:50pm 13ft 11s 8s 25 29 mph 1028mb 44f 41f
10:50pm 12ft 12s 7s 25 31 mph 1027.9mb 44f 41f
9:50pm 13ft 11s 8s 20 25 mph 1027.6mb 44f 41f
8:50pm 11.5ft 11s 8s 22 29 mph 1027.2mb 43f 41f
7:50pm 13.5ft 12s 8s 25 29 mph 1026.8mb 43f 41f
6:50pm 11.5ft 12s 8s 22 27 mph 1026.3mb 44f 41f
5:50pm 12ft 11s 8s 20 29 mph 1026.2mb 44f 38f
4:50pm 12.5ft 12s 8s 13 18 mph 1025.6mb 44f 39f
3:50pm 11.5ft 12s 8s 18 22 mph 1025.8mb 44f 40f
2:50pm 11.5ft 12s 8s 16 20 mph 1025.5mb 44f 40f
1:50pm 13ft 12s 8s 16 20 mph 1025.3mb 44f 40f
12:50pm 12ft 11s 8s 22 27 mph 1024.9mb 44f 38f
11:50am 14ft 13s 9s 16 20 mph 1024.9mb 44f 41f
10:50am 13ft 13s 9s 11 18 mph 1024.7mb 44f 40f
9:50am 13ft 13s 8s 13 20 mph 1024.4mb 44f 40f
8:50am 14ft 13s 8s 9 11 mph 1024.3mb 44f 38f
7:50am 15.5ft 12s 9s 13 16 mph 1023.7mb 44f 40f
6:50am 15.5ft 12s 9s 13 18 mph 1023.1mb 44f 40f
5:50am 15.5ft 12s 8s 4 11 mph 1022.6mb 44f 40f
4:50am 16.5ft 12s 9s 4 9 mph 1021.8mb 44f 40f
3:50am 17ft 13s 9s 9 16 mph 1020.8mb 44f 40f